Beverly Hills, CA (90209)

3:35 PM PDT on October 22, 2014 (GMT -0700)
MacDumes - Park La Brea | Change Station
CLOSE
Current Station
Personal Weather Station
Location: Los Angeles, CA
Elevation: 217 ft
Nearby Weather Stations

Elev 217 ft 34.07 °N, 118.35 °W | Updated 14 seconds ago

Clear
Clear
78.1 °F
Feels Like 80 °F
N
0.0
Wind Variable Wind from NE
Gusts 0.7 mph

Today
High -- | Low -- °F
--% Chance of Precip.
Yesterday
High -- | Low -- °F
Precip. -- in
7:04 AM 6:10 PM
Waning Crescent, 1% visible
Pressure 29.90 in
Visibility 10.0 miles
Clouds Clear
Heat Index 80 °F
Dew Point 69 °F
Humidity 73%
Rainfall 0.00 in
Snow Depth Not available.
UV 4 out of 12
Pollen 4.50 out of 12
Ozone Good
Flu Activity Sporadic
METAR KSMO 222151Z 23010KT 10SM CLR 24/15 A2990 RMK AO2 SLP125 T02390150

More Conditions Fewer Conditions

Pressure 29.90 in
Visibility 10.0 miles
Clouds Clear
Heat Index 80 °F
Dew Point 69 °F
Humidity 73%
Rainfall 0.00 in
Snow Depth Not available.
UV 4 out of 12
Pollen 4.50 out of 12
Ozone Good
Flu Activity Sporadic
METAR KSMO 222151Z 23010KT 10SM CLR 24/15 A2990 RMK AO2 SLP125 T02390150

More Conditions Fewer Conditions

10-Day Weather Forecast

Almanac

Astronomy

Oct. 22, 2014 Rise Set
Actual Time 7:04 AM PDT 6:10 PM PDT
Civil Twilight 6:39 AM PDT 6:36 PM PDT
Nautical Twilight 6:09 AM PDT 7:05 PM PDT
Astronomical Twilight 5:40 AM PDT 7:34 PM PDT
Moon 5:53 AM PDT 5:38 PM PDT
Length of Visible Light 11h 57m
Length of Day
11h 06m
Tomorrow will be 1m 59s shorter.
Waning Crescent, 1% of the Moon is Illuminated
Today
Waning Crescent
Oct 23
New
Oct 30
First Quarter
Nov 6
Full
Nov 14
Last Quarter

Today's Extremes

State Highs State Lows

Community

WunderPhotos

Upload Photos

1,764,065 photos uploaded!

WunderBlogs® & News

Nearby

Air Quality

  Air Quality AQ Index Pollutant
Yesterday Good
OZONE
Current Good
OZONE
Thursday Good
PM10
Thursday Good
OZONE
Thursday Good
CO
Thursday Good
NO2

Snow Depth

Station Depth Elevation
Summit Meadow 0 in 9122 ft
Monitor Pass 0 in 8350 ft
Rubicon #2 0 in 7500 ft
Adin Mountain 0 in 6200 ft

Earthquake Activity

City Distance Mag. Time & Date
Kettleman City, California 146 miles 2.5 9:08 AM PDT
2014-10-22
Minimum magnitude displayed is 2.5.

Coastal Water Temperatures

Place Temperature
Santa Monica Pier 70.0 °F
Los Angeles, CA 70.0 °F
La Jolla, CA 72.0 °F

Nearby Weather Stations